Hlavní strana
METAR-TAF:

METAR-TAF

Letiště :

Hohenfels, Německo

zeměpisná šířka: 49-13N, zeměpisná délka: 011-50E, výška: 442 m

Aktuální stav počasí

Zpráva byla vytvořena před 27 minutami, v 20:56 UTC
Bezvětří
Teplota 16°C
Vlhkost vzduchu 94%
Tlak 1022 hPa
Viditelnost 10 km a více
Jasno

METAR: ETIH 262056Z AUTO 00000KT 9999 CLR 16/15 A3017 RMK AO2 SLP207 60000 T01580153 52009 $

Čas: 23:23 (21:23 UTC)


TAF: chybějící

Stav a předpovědi počasí z více než 4 000 letišť (zprávy METAR a TAF).

Červené a žluté tečky na mapě představují dostupné meteorologické stanice.

Když kurzor umístíte na tečku, zobrazí se název stanice.

Pak kliknutím zobrazíte stav a předpověď počasí.

Chcete-li změnit mapu, kliknutím na zelené tlačítko se znaménkem +mapu přiblížíte, kliknutím na zelené tlačítko se znaménkem – mapu oddálíte a kliknutím na zelené šipky přejdete na sousední mapy.


METAR-TAF: